createdAt,value
2023-04-18T00:01:48.990Z,20.00
2023-04-18T00:04:18.535Z,21.10
2023-04-18T00:06:47.171Z,23.00
2023-04-18T00:09:14.603Z,22.30
2023-04-18T00:11:42.044Z,22.50
2023-04-18T00:14:10.327Z,24.08
2023-04-18T00:16:38.058Z,21.48
2023-04-18T00:19:06.182Z,23.38
2023-04-18T00:21:34.971Z,21.05
2023-04-18T00:24:02.406Z,22.17
2023-04-18T00:26:29.798Z,24.13
2023-04-18T00:28:57.735Z,23.95
2023-04-18T00:31:25.357Z,24.00
2023-04-18T00:33:52.853Z,27.05
2023-04-18T00:36:20.260Z,26.63
2023-04-18T00:38:48.943Z,27.23
2023-04-18T00:41:16.477Z,25.40
2023-04-18T00:43:43.878Z,25.77
2023-04-18T00:46:11.270Z,27.60
2023-04-18T00:48:39.795Z,26.98
2023-04-18T00:51:07.877Z,28.20
2023-04-18T00:53:35.285Z,26.33
2023-04-18T00:56:04.850Z,27.45
2023-04-18T00:58:32.944Z,26.42
2023-04-18T01:01:00.376Z,29.58
2023-04-18T01:03:27.937Z,26.70
2023-04-18T01:05:57.326Z,27.85
2023-04-18T01:08:25.535Z,26.77
2023-04-18T01:10:52.938Z,28.38
2023-04-18T01:13:21.777Z,26.63
2023-04-18T01:15:51.565Z,27.63
2023-04-18T01:18:20.761Z,26.17
2023-04-18T01:20:49.731Z,27.17
2023-04-18T01:23:18.687Z,26.50
2023-04-18T01:25:49.172Z,25.67
2023-04-18T01:28:16.890Z,28.42
2023-04-18T01:30:44.326Z,27.73
2023-04-18T01:33:11.934Z,29.02
2023-04-18T01:35:39.336Z,30.58
2023-04-18T01:38:06.725Z,29.83
2023-04-18T01:40:34.118Z,31.38
2023-04-18T01:43:02.879Z,29.88
2023-04-18T01:45:30.590Z,29.00
2023-04-18T01:47:58.147Z,30.10
2023-04-18T01:50:26.002Z,30.13
2023-04-18T01:52:53.482Z,30.23
2023-04-18T01:55:20.976Z,29.67
2023-04-18T01:57:48.377Z,29.90
2023-04-18T02:00:17.834Z,28.52
2023-04-18T02:02:45.415Z,29.42
2023-04-18T02:05:12.874Z,32.85
2023-04-18T02:07:40.929Z,30.98
2023-04-18T02:10:09.152Z,31.52
2023-04-18T02:12:36.687Z,29.25
2023-04-18T02:15:04.348Z,31.80
2023-04-18T02:17:33.482Z,32.60
2023-04-18T02:20:00.898Z,31.08
2023-04-18T02:22:28.263Z,34.33
2023-04-18T02:24:55.817Z,33.35
2023-04-18T02:27:23.206Z,35.63
2023-04-18T02:29:50.669Z,32.60
2023-04-18T02:32:18.081Z,32.92
2023-04-18T02:34:46.752Z,34.78
2023-04-18T02:37:14.118Z,32.95
2023-04-18T02:39:41.489Z,31.10
2023-04-18T02:42:08.851Z,33.15
2023-04-18T02:44:36.224Z,31.95
2023-04-18T02:47:03.573Z,32.78
2023-04-18T02:49:30.935Z,32.65
2023-04-18T02:51:59.636Z,32.90
2023-04-18T02:54:26.997Z,31.65
2023-04-18T02:56:55.270Z,32.13
2023-04-18T02:59:22.661Z,33.00
2023-04-18T03:01:50.039Z,33.72
2023-04-18T03:04:17.497Z,29.38
2023-04-18T03:06:44.958Z,31.65
2023-04-18T03:09:13.665Z,30.55
2023-04-18T03:11:41.082Z,29.80
2023-04-18T03:14:08.451Z,32.22
2023-04-18T03:16:35.890Z,28.88
2023-04-18T03:19:03.249Z,31.77
2023-04-18T03:21:30.735Z,30.88
2023-04-18T03:23:58.137Z,30.60
2023-04-18T03:26:26.987Z,27.67
2023-04-18T03:28:54.426Z,28.55
2023-04-18T03:31:21.854Z,30.30
2023-04-18T03:33:51.534Z,27.77
2023-04-18T03:36:19.016Z,26.17
2023-04-18T03:38:46.536Z,31.80
2023-04-18T03:41:13.891Z,28.70
2023-04-18T03:43:42.549Z,32.22
2023-04-18T03:46:10.037Z,31.75
2023-04-18T03:48:37.482Z,31.35
2023-04-18T03:51:06.653Z,30.27
2023-04-18T03:53:33.996Z,28.02
2023-04-18T03:56:01.384Z,29.02
2023-04-18T03:58:28.740Z,30.30
2023-04-18T04:00:57.444Z,31.27
2023-04-18T04:03:25.079Z,34.72
2023-04-18T04:05:53.568Z,33.35
2023-04-18T04:08:21.215Z,32.33
2023-04-18T04:10:48.592Z,34.15
2023-04-18T04:13:15.990Z,35.28
2023-04-18T04:15:43.402Z,38.47
2023-04-18T04:18:12.083Z,34.33
2023-04-18T04:20:39.507Z,30.35
2023-04-18T04:23:07.236Z,33.55
2023-04-18T04:25:34.674Z,37.22
2023-04-18T04:28:02.961Z,38.17
2023-04-18T04:30:30.500Z,34.50
2023-04-18T04:32:58.151Z,37.85
2023-04-18T04:35:26.902Z,33.83
2023-04-18T04:37:54.621Z,39.30
2023-04-18T04:40:22.933Z,39.92
2023-04-18T04:42:53.891Z,33.55
2023-04-18T04:45:21.509Z,36.75
2023-04-18T04:47:48.910Z,33.97
2023-04-18T04:50:16.570Z,33.45
2023-04-18T04:52:45.276Z,35.75
2023-04-18T04:55:12.685Z,34.08
2023-04-18T04:57:40.079Z,31.38
2023-04-18T05:00:08.955Z,38.88
2023-04-18T05:02:36.487Z,36.80
2023-04-18T05:05:04.163Z,35.67
2023-04-18T05:07:31.777Z,33.13
2023-04-18T05:10:00.491Z,36.63
2023-04-18T05:12:27.887Z,38.95
2023-04-18T05:14:55.248Z,35.03
2023-04-18T05:17:22.778Z,37.83
2023-04-18T05:19:51.048Z,39.05
2023-04-18T05:22:18.440Z,34.60
2023-04-18T05:24:46.822Z,37.10
2023-04-18T05:27:18.038Z,39.42
2023-04-18T05:29:47.304Z,37.50
2023-04-18T05:32:14.669Z,35.83
2023-04-18T05:34:42.261Z,37.40
2023-04-18T05:37:09.645Z,34.22
2023-04-18T05:39:37.135Z,35.72
2023-04-18T05:42:04.870Z,34.03
2023-04-18T05:44:33.584Z,36.97
2023-04-18T05:47:01.041Z,33.40
2023-04-18T05:49:28.413Z,37.10
2023-04-18T05:51:56.472Z,32.60
2023-04-18T05:54:25.038Z,36.92
2023-04-18T05:56:52.534Z,32.42
2023-04-18T05:59:20.574Z,32.60
2023-04-18T06:01:49.376Z,32.42
2023-04-18T06:04:17.498Z,33.33
2023-04-18T06:06:45.251Z,33.50
2023-04-18T06:09:12.642Z,31.35
2023-04-18T06:11:40.022Z,30.65
2023-04-18T06:14:07.764Z,32.92
2023-04-18T06:16:37.046Z,32.65
2023-04-18T06:19:05.859Z,29.77
2023-04-18T06:21:33.251Z,29.88
2023-04-18T06:24:01.275Z,30.35
2023-04-18T06:26:30.080Z,26.77
2023-04-18T06:28:57.428Z,29.63
2023-04-18T06:31:24.852Z,30.73
2023-04-18T06:33:52.335Z,29.30
2023-04-18T06:36:21.181Z,28.88
2023-04-18T06:38:48.530Z,33.38
2023-04-18T06:41:16.151Z,32.42
2023-04-18T06:43:55.787Z,31.65
2023-04-18T06:46:29.545Z,32.95
2023-04-18T06:48:57.048Z,34.10
2023-04-18T06:51:25.954Z,32.88
2023-04-18T06:53:53.786Z,31.98
2023-04-18T06:56:21.495Z,35.97
2023-04-18T06:58:49.085Z,32.97
2023-04-18T07:01:16.593Z,31.95
2023-04-18T07:03:44.164Z,35.58
2023-04-18T07:06:11.659Z,30.20
2023-04-18T07:08:40.366Z,33.22
2023-04-18T07:11:07.771Z,29.30
2023-04-18T07:13:35.135Z,30.23
2023-04-18T07:16:02.987Z,29.90
2023-04-18T07:18:37.933Z,32.38
2023-04-18T07:21:07.396Z,29.08
2023-04-18T07:23:35.340Z,27.85
2023-04-18T07:26:05.492Z,34.60
2023-04-18T07:28:33.562Z,29.58
2023-04-18T07:31:01.099Z,30.63
2023-04-18T07:33:31.576Z,30.52
2023-04-18T07:35:59.176Z,30.77
2023-04-18T07:38:27.767Z,32.63
2023-04-18T07:40:57.594Z,29.95
2023-04-18T07:43:26.853Z,32.97
2023-04-18T07:45:54.930Z,26.73
2023-04-18T07:48:22.878Z,26.67
2023-04-18T07:50:50.522Z,29.35
2023-04-18T07:53:18.149Z,28.77
2023-04-18T07:55:45.659Z,28.73
2023-04-18T07:58:13.059Z,30.20
2023-04-18T08:00:43.695Z,27.15
2023-04-18T08:03:12.330Z,30.20
2023-04-18T08:05:40.928Z,28.17
2023-04-18T08:08:09.631Z,26.75
2023-04-18T08:10:37.668Z,29.67
2023-04-18T08:13:05.055Z,28.30
2023-04-18T08:15:32.959Z,30.23
2023-04-18T08:18:02.146Z,29.17
2023-04-18T08:20:29.558Z,30.13
2023-04-18T08:23:07.540Z,28.13
2023-04-18T08:25:36.601Z,27.42
2023-04-18T08:28:04.714Z,36.28
2023-04-18T08:30:32.635Z,29.02
2023-04-18T08:33:01.825Z,26.92
2023-04-18T08:35:29.621Z,25.65
2023-04-18T08:37:57.125Z,23.83
2023-04-18T08:40:24.961Z,26.20
2023-04-18T08:42:54.117Z,28.23
2023-04-18T08:45:21.681Z,27.77
2023-04-18T08:47:49.140Z,25.77
2023-04-18T08:50:18.406Z,27.13
2023-04-18T08:52:47.673Z,28.42
2023-04-18T08:55:15.729Z,28.63
2023-04-18T08:57:43.306Z,28.38
2023-04-18T09:00:11.826Z,23.73
2023-04-18T09:02:43.210Z,29.35
2023-04-18T09:05:15.053Z,27.50
2023-04-18T09:07:43.976Z,26.55
2023-04-18T09:10:12.514Z,28.23
2023-04-18T09:12:44.611Z,29.50
2023-04-18T09:15:14.367Z,28.02
2023-04-18T09:17:43.542Z,26.70
2023-04-18T09:20:12.244Z,28.20
2023-04-18T09:22:48.667Z,28.63
2023-04-18T09:25:27.362Z,29.88
2023-04-18T09:27:54.894Z,28.27
2023-04-18T09:30:39.972Z,30.23
2023-04-18T09:33:10.178Z,31.85
2023-04-18T09:35:38.493Z,28.27
2023-04-18T09:38:08.635Z,28.95
2023-04-18T09:40:36.514Z,29.05
2023-04-18T09:43:19.049Z,31.20
2023-04-18T09:45:47.897Z,29.02
2023-04-18T09:48:15.339Z,29.10
2023-04-18T09:50:43.506Z,31.77
2023-04-18T09:53:13.302Z,31.15
2023-04-18T09:55:42.277Z,28.27
2023-04-18T09:58:11.419Z,31.77
2023-04-18T10:00:40.745Z,29.15
2023-04-18T10:03:09.820Z,31.05
2023-04-18T10:05:40.485Z,28.75
2023-04-18T10:08:08.490Z,29.58
2023-04-18T10:10:38.947Z,26.83
2023-04-18T10:13:08.375Z,28.10
2023-04-18T10:15:36.178Z,29.85
2023-04-18T10:18:07.933Z,28.95
2023-04-18T10:20:36.089Z,32.03
2023-04-18T10:23:37.718Z,28.17
2023-04-18T10:26:07.489Z,30.67
2023-04-18T10:28:52.823Z,28.67
2023-04-18T10:31:22.172Z,26.75
2023-04-18T10:34:03.347Z,31.00
2023-04-18T10:36:32.510Z,29.70
2023-04-18T10:39:02.924Z,26.15
2023-04-18T10:41:32.309Z,28.35
2023-04-18T10:44:20.058Z,26.58
2023-04-18T10:47:23.954Z,25.60
2023-04-18T10:50:06.636Z,24.15
2023-04-18T10:52:34.634Z,28.05
2023-04-18T10:55:18.499Z,25.38
2023-04-18T10:57:48.860Z,24.75
2023-04-18T11:00:18.630Z,28.27
2023-04-18T11:02:51.017Z,28.77
2023-04-18T11:05:24.161Z,29.58
2023-04-18T11:07:51.782Z,28.10
2023-04-18T11:10:20.710Z,28.67
2023-04-18T11:12:49.535Z,30.20
2023-04-18T11:15:21.260Z,30.80
2023-04-18T11:18:00.397Z,34.33
2023-04-18T11:20:28.476Z,29.48
2023-04-18T11:22:57.858Z,29.88
2023-04-18T11:25:27.385Z,31.55
2023-04-18T11:27:59.342Z,32.00
2023-04-18T11:30:26.897Z,32.38
2023-04-18T11:32:55.913Z,30.33
2023-04-18T11:35:23.678Z,30.00
2023-04-18T11:37:51.231Z,30.45
2023-04-18T11:40:18.742Z,28.95
2023-04-18T11:42:46.224Z,29.52
2023-04-18T11:45:16.568Z,29.33
2023-04-18T11:47:44.593Z,30.38
2023-04-18T11:50:13.570Z,28.23
2023-04-18T11:52:42.451Z,30.75
2023-04-18T11:55:17.845Z,30.25
2023-04-18T11:57:53.442Z,30.42
2023-04-18T12:00:32.702Z,28.30
2023-04-18T12:03:01.806Z,27.85
2023-04-18T12:05:31.473Z,28.23
2023-04-18T12:08:06.986Z,30.00
2023-04-18T12:10:35.834Z,27.88
2023-04-18T12:13:07.968Z,27.33
2023-04-18T12:15:39.639Z,27.48
2023-04-18T12:18:09.088Z,29.65
2023-04-18T12:20:38.749Z,29.25
2023-04-18T12:23:07.759Z,30.02
2023-04-18T12:25:36.299Z,29.95
2023-04-18T12:28:05.061Z,30.60
2023-04-18T12:30:36.813Z,26.48
2023-04-18T12:33:06.624Z,27.38
2023-04-18T12:35:34.154Z,29.10
2023-04-18T12:38:03.482Z,29.85
2023-04-18T12:40:31.370Z,27.73
2023-04-18T12:42:58.747Z,29.55
2023-04-18T12:45:26.193Z,28.55
2023-04-18T12:47:54.042Z,30.95
2023-04-18T12:50:24.700Z,27.35
2023-04-18T12:52:53.386Z,28.08
2023-04-18T12:55:21.699Z,28.23
2023-04-18T12:57:51.418Z,29.05
2023-04-18T13:00:18.873Z,28.90
2023-04-18T13:02:46.492Z,25.25
2023-04-18T13:05:15.719Z,28.23
2023-04-18T13:07:44.866Z,28.23
2023-04-18T13:10:14.203Z,26.73
2023-04-18T13:12:42.410Z,26.98
2023-04-18T13:15:14.931Z,26.55
2023-04-18T13:17:42.703Z,26.00
2023-04-18T13:20:12.357Z,24.15
2023-04-18T13:22:40.576Z,27.00
2023-04-18T13:25:11.238Z,28.60
2023-04-18T13:27:41.460Z,25.67
2023-04-18T13:30:12.304Z,26.13
2023-04-18T13:32:40.471Z,24.98
2023-04-18T13:35:09.411Z,25.67
2023-04-18T13:37:37.012Z,22.88
2023-04-18T13:40:06.498Z,23.20
2023-04-18T13:42:38.126Z,23.83
2023-04-18T13:45:06.429Z,25.00
2023-04-18T13:47:33.921Z,25.00
2023-04-18T13:50:01.300Z,23.83
2023-04-18T13:52:28.806Z,22.30
2023-04-18T13:54:56.204Z,23.17
2023-04-18T13:57:23.619Z,23.02
2023-04-18T13:59:52.321Z,20.55
2023-04-18T14:02:19.775Z,24.15
2023-04-18T14:04:47.412Z,21.95
2023-04-18T14:07:15.184Z,20.17
2023-04-18T14:09:42.629Z,19.40
2023-04-18T14:12:10.536Z,19.42
2023-04-18T14:14:38.021Z,22.08
2023-04-18T14:17:06.971Z,20.58
2023-04-18T14:19:34.918Z,21.40
2023-04-18T14:22:02.430Z,23.10
2023-04-18T14:24:29.815Z,23.30
2023-04-18T14:26:57.282Z,23.20
2023-04-18T14:29:24.661Z,21.23
2023-04-18T14:31:52.045Z,21.20
2023-04-18T14:34:20.810Z,22.30
2023-04-18T14:36:48.257Z,22.05
2023-04-18T14:39:15.887Z,22.02
2023-04-18T14:41:43.402Z,19.38
2023-04-18T14:44:10.978Z,18.83
2023-04-18T14:46:38.463Z,17.55
2023-04-18T14:49:05.950Z,23.08
2023-04-18T14:51:35.092Z,16.83
2023-04-18T14:54:02.708Z,18.92
2023-04-18T14:56:30.446Z,16.92
2023-04-18T14:58:58.685Z,20.05
2023-04-18T15:01:26.319Z,17.63
2023-04-18T15:03:54.669Z,18.58
2023-04-18T15:06:23.107Z,16.77
2023-04-18T15:08:53.194Z,18.42
2023-04-18T15:11:20.993Z,17.15
2023-04-18T15:13:50.043Z,16.92
2023-04-18T15:16:17.739Z,19.30
2023-04-18T15:18:45.449Z,19.25
2023-04-18T15:21:12.900Z,15.38
2023-04-18T15:23:40.349Z,17.77
2023-04-18T15:26:09.119Z,17.92
2023-04-18T15:28:37.971Z,16.83
2023-04-18T15:31:07.170Z,18.83
2023-04-18T15:33:34.735Z,20.23
2023-04-18T15:36:02.262Z,18.15
2023-04-18T15:38:32.723Z,17.35
2023-04-18T15:41:00.580Z,20.50
2023-04-18T15:43:29.476Z,21.27
2023-04-18T15:45:56.904Z,18.33
2023-04-18T15:48:24.438Z,20.65
2023-04-18T15:50:52.379Z,20.88
2023-04-18T15:53:19.999Z,20.88
2023-04-18T15:55:47.561Z,23.75
2023-04-18T15:58:15.182Z,21.17
2023-04-18T16:00:44.252Z,21.50
2023-04-18T16:03:12.185Z,22.15
2023-04-18T16:05:40.026Z,19.95
2023-04-18T16:08:08.881Z,19.98
2023-04-18T16:10:36.486Z,20.98
2023-04-18T16:13:04.122Z,23.63
2023-04-18T16:15:32.173Z,23.48
2023-04-18T16:18:01.657Z,22.73
2023-04-18T16:20:29.319Z,27.05
2023-04-18T16:22:56.861Z,20.60
2023-04-18T16:25:24.714Z,22.88
2023-04-18T16:27:52.230Z,24.52
2023-04-18T16:30:19.619Z,25.33
2023-04-18T16:32:47.055Z,24.08
2023-04-18T16:35:15.796Z,23.05
2023-04-18T16:37:43.192Z,22.85
2023-04-18T16:40:11.318Z,22.40
2023-04-18T16:42:39.800Z,24.52
2023-04-18T16:45:08.095Z,21.58
2023-04-18T16:47:36.922Z,23.63
2023-04-18T16:50:04.734Z,24.10
2023-04-18T16:52:33.515Z,24.65
2023-04-18T16:55:01.006Z,23.85
2023-04-18T16:57:28.374Z,26.98
2023-04-18T16:59:55.894Z,24.85
2023-04-18T17:02:23.642Z,23.50
2023-04-18T17:04:51.490Z,21.58
2023-04-18T17:07:19.791Z,23.20
2023-04-18T17:09:49.185Z,21.52
2023-04-18T17:12:17.220Z,20.70
2023-04-18T17:14:45.293Z,23.77
2023-04-18T17:17:13.307Z,22.92
2023-04-18T17:19:41.055Z,24.08
2023-04-18T17:22:08.491Z,24.00
2023-04-18T17:24:35.888Z,23.55
2023-04-18T17:27:04.689Z,22.15
2023-04-18T17:29:32.543Z,21.20
2023-04-18T17:32:00.013Z,21.73
2023-04-18T17:34:27.516Z,24.27
2023-04-18T17:36:54.900Z,22.98
2023-04-18T17:39:24.223Z,21.33
2023-04-18T17:41:51.574Z,23.17
2023-04-18T17:44:20.660Z,23.98
2023-04-18T17:46:48.939Z,21.17
2023-04-18T17:49:17.858Z,22.98
2023-04-18T17:51:45.540Z,22.23
2023-04-18T17:54:13.426Z,25.55
2023-04-18T17:56:41.134Z,22.50
2023-04-18T17:59:09.709Z,23.25
2023-04-18T18:01:38.686Z,23.35
2023-04-18T18:04:06.337Z,22.80
2023-04-18T18:06:34.494Z,20.52
2023-04-18T18:09:01.888Z,22.98
2023-04-18T18:11:29.272Z,25.35
2023-04-18T18:13:57.344Z,22.70
2023-04-18T18:16:24.904Z,21.25
2023-04-18T18:18:53.629Z,23.08
2023-04-18T18:21:21.000Z,21.15
2023-04-18T18:23:48.388Z,21.63
2023-04-18T18:26:17.213Z,21.67
2023-04-18T18:28:44.562Z,21.38
2023-04-18T18:31:12.038Z,21.75
2023-04-18T18:33:39.527Z,24.20
2023-04-18T18:36:08.392Z,22.83
2023-04-18T18:38:35.785Z,20.83
2023-04-18T18:41:04.569Z,21.50
2023-04-18T18:43:32.406Z,23.17
2023-04-18T18:45:59.895Z,21.73
2023-04-18T18:48:28.302Z,23.15
2023-04-18T18:50:56.504Z,24.45
2023-04-18T18:53:25.422Z,26.10
2023-04-18T18:55:52.804Z,22.40
2023-04-18T18:58:20.672Z,24.10
2023-04-18T19:00:48.166Z,24.25
2023-04-18T19:03:18.278Z,24.48
2023-04-18T19:05:45.925Z,21.60
2023-04-18T19:08:13.474Z,23.85
2023-04-18T19:10:43.116Z,26.35
2023-04-18T19:13:10.647Z,25.38
2023-04-18T19:15:38.120Z,24.45
2023-04-18T19:18:05.684Z,24.35
2023-04-18T19:20:35.204Z,23.80
2023-04-18T19:23:02.650Z,23.33
2023-04-18T19:25:30.637Z,26.95
2023-04-18T19:27:59.333Z,24.58
2023-04-18T19:30:26.694Z,25.58
2023-04-18T19:32:54.121Z,24.13
2023-04-18T19:35:21.594Z,24.20
2023-04-18T19:37:48.987Z,24.38
2023-04-18T19:40:16.491Z,24.63
2023-04-18T19:42:44.233Z,26.40
2023-04-18T19:45:16.222Z,22.20
2023-04-18T19:47:44.977Z,24.88
2023-04-18T19:50:12.437Z,23.35
2023-04-18T19:52:40.185Z,23.10
2023-04-18T19:55:08.575Z,22.33
2023-04-18T19:57:38.915Z,22.90
2023-04-18T20:00:08.322Z,23.33
2023-04-18T20:02:37.166Z,23.52
2023-04-18T20:05:05.603Z,21.98
2023-04-18T20:07:33.182Z,27.50
2023-04-18T20:10:00.658Z,23.50
2023-04-18T20:12:28.397Z,24.02
2023-04-18T20:14:56.138Z,24.08
2023-04-18T20:17:23.589Z,24.60
2023-04-18T20:19:52.331Z,22.95
2023-04-18T20:22:20.193Z,25.38
2023-04-18T20:24:48.710Z,24.42
2023-04-18T20:27:20.255Z,25.40
2023-04-18T20:29:47.677Z,23.30
2023-04-18T20:32:16.018Z,22.00
2023-04-18T20:34:43.419Z,24.33
2023-04-18T20:37:15.381Z,22.13
2023-04-18T20:39:42.790Z,24.10
2023-04-18T20:42:14.152Z,22.58
2023-04-18T20:44:43.119Z,24.85
2023-04-18T20:47:10.636Z,23.52
2023-04-18T20:49:38.104Z,26.25
2023-04-18T20:52:09.401Z,24.27
2023-04-18T20:54:38.090Z,24.58
2023-04-18T20:57:05.455Z,26.67
2023-04-18T20:59:32.824Z,26.98
2023-04-18T21:02:00.371Z,21.63
2023-04-18T21:04:28.090Z,23.00
2023-04-18T21:06:55.590Z,22.05
2023-04-18T21:09:22.993Z,24.10
2023-04-18T21:11:51.666Z,24.98
2023-04-18T21:14:19.917Z,22.88
2023-04-18T21:16:47.288Z,24.38
2023-04-18T21:19:14.774Z,23.67
2023-04-18T21:21:42.158Z,24.95
2023-04-18T21:24:10.775Z,22.63
2023-04-18T21:26:38.184Z,23.85
2023-04-18T21:29:06.929Z,22.00
2023-04-18T21:31:35.488Z,21.77
2023-04-18T21:34:04.622Z,22.45
2023-04-18T21:36:32.662Z,23.98
2023-04-18T21:39:01.635Z,25.20
2023-04-18T21:41:29.127Z,21.73
2023-04-18T21:43:56.850Z,22.63
2023-04-18T21:46:25.766Z,25.48
2023-04-18T21:48:53.160Z,24.08
2023-04-18T21:51:20.599Z,25.40
2023-04-18T21:53:48.035Z,24.75
2023-04-18T21:56:16.659Z,22.95
2023-04-18T21:58:44.160Z,22.75
2023-04-18T22:01:11.641Z,26.85
2023-04-18T22:03:40.859Z,23.92
2023-04-18T22:06:08.394Z,23.58
2023-04-18T22:08:36.046Z,24.48
2023-04-18T22:11:04.790Z,24.17
2023-04-18T22:13:33.142Z,25.60
2023-04-18T22:16:02.018Z,23.90
2023-04-18T22:18:33.227Z,24.23
2023-04-18T22:21:02.352Z,27.35
2023-04-18T22:23:30.542Z,25.20
2023-04-18T22:25:57.968Z,26.38
2023-04-18T22:28:26.186Z,25.75
2023-04-18T22:30:53.576Z,26.75
2023-04-18T22:33:20.985Z,24.52
2023-04-18T22:35:48.886Z,26.17
2023-04-18T22:38:17.967Z,26.73
2023-04-18T22:40:45.529Z,24.98
2023-04-18T22:43:12.908Z,23.83
2023-04-18T22:45:40.304Z,25.30
2023-04-18T22:48:11.314Z,26.60
2023-04-18T22:50:42.473Z,26.42
2023-04-18T22:53:10.242Z,25.85
2023-04-18T22:55:40.775Z,24.90
2023-04-18T22:58:08.622Z,24.02
2023-04-18T23:00:36.139Z,26.95
2023-04-18T23:03:03.842Z,23.42
2023-04-18T23:05:31.727Z,24.55
2023-04-18T23:08:00.231Z,24.73
2023-04-18T23:10:28.097Z,22.90
2023-04-18T23:12:56.956Z,25.17
2023-04-18T23:15:24.492Z,21.83
2023-04-18T23:17:53.176Z,24.30
2023-04-18T23:20:20.985Z,24.38
2023-04-18T23:22:49.984Z,22.33
2023-04-18T23:25:17.493Z,21.58
2023-04-18T23:27:44.867Z,26.00
2023-04-18T23:30:14.083Z,22.20
2023-04-18T23:32:41.640Z,22.30
2023-04-18T23:35:09.947Z,24.08
2023-04-18T23:37:37.370Z,22.88
2023-04-18T23:40:06.691Z,21.90
2023-04-18T23:42:35.065Z,23.48
2023-04-18T23:45:03.563Z,21.10
2023-04-18T23:47:32.418Z,20.63
2023-04-18T23:49:59.818Z,20.08
2023-04-18T23:52:27.204Z,20.10
2023-04-18T23:54:54.602Z,20.02
2023-04-18T23:57:22.109Z,19.75
2023-04-18T23:59:49.505Z,19.13
